sensor_id;sensor_type;location;lat;lon;timestamp;P1;durP1;ratioP1;P2;durP2;ratioP2
48703;SDS011;34502;51.296;16.918;2024-03-22T00:02:00;15.27;;;12.73;;
48703;SDS011;34502;51.296;16.918;2024-03-22T00:04:26;16.38;;;12.45;;
48703;SDS011;34502;51.296;16.918;2024-03-22T00:06:52;15.95;;;12.38;;
48703;SDS011;34502;51.296;16.918;2024-03-22T00:09:18;14.93;;;12.50;;
48703;SDS011;34502;51.296;16.918;2024-03-22T00:11:44;15.65;;;12.65;;
48703;SDS011;34502;51.296;16.918;2024-03-22T00:14:11;13.82;;;12.18;;
48703;SDS011;34502;51.296;16.918;2024-03-22T00:16:37;15.32;;;12.63;;
48703;SDS011;34502;51.296;16.918;2024-03-22T00:19:04;13.48;;;11.32;;
48703;SDS011;34502;51.296;16.918;2024-03-22T00:21:30;16.00;;;11.45;;
48703;SDS011;34502;51.296;16.918;2024-03-22T00:23:56;13.00;;;11.48;;
48703;SDS011;34502;51.296;16.918;2024-03-22T00:26:22;12.73;;;11.38;;
48703;SDS011;34502;51.296;16.918;2024-03-22T00:28:49;11.88;;;10.35;;
48703;SDS011;34502;51.296;16.918;2024-03-22T00:31:15;13.98;;;11.05;;
48703;SDS011;34502;51.296;16.918;2024-03-22T00:33:42;13.55;;;10.85;;
48703;SDS011;34502;51.296;16.918;2024-03-22T00:36:08;12.38;;;11.07;;
48703;SDS011;34502;51.296;16.918;2024-03-22T00:38:34;10.80;;;9.70;;
48703;SDS011;34502;51.296;16.918;2024-03-22T00:41:00;10.70;;;9.63;;
48703;SDS011;34502;51.296;16.918;2024-03-22T00:43:26;10.02;;;8.77;;
48703;SDS011;34502;51.296;16.918;2024-03-22T00:45:53;10.80;;;9.05;;
48703;SDS011;34502;51.296;16.918;2024-03-22T00:48:19;9.40;;;8.23;;
48703;SDS011;34502;51.296;16.918;2024-03-22T00:50:45;10.48;;;8.35;;
48703;SDS011;34502;51.296;16.918;2024-03-22T00:53:11;8.50;;;7.45;;
48703;SDS011;34502;51.296;16.918;2024-03-22T00:55:37;10.70;;;8.73;;
48703;SDS011;34502;51.296;16.918;2024-03-22T00:58:03;9.48;;;8.15;;
48703;SDS011;34502;51.296;16.918;2024-03-22T01:00:30;11.77;;;8.35;;
48703;SDS011;34502;51.296;16.918;2024-03-22T01:02:56;11.85;;;9.75;;
48703;SDS011;34502;51.296;16.918;2024-03-22T01:05:22;12.93;;;8.55;;
48703;SDS011;34502;51.296;16.918;2024-03-22T01:07:48;10.23;;;8.25;;
48703;SDS011;34502;51.296;16.918;2024-03-22T01:10:14;11.90;;;8.15;;
48703;SDS011;34502;51.296;16.918;2024-03-22T01:12:40;12.32;;;8.45;;
48703;SDS011;34502;51.296;16.918;2024-03-22T01:15:07;10.18;;;8.15;;
48703;SDS011;34502;51.296;16.918;2024-03-22T01:17:34;10.32;;;8.38;;
48703;SDS011;34502;51.296;16.918;2024-03-22T01:20:00;9.90;;;8.30;;
48703;SDS011;34502;51.296;16.918;2024-03-22T01:22:26;13.20;;;8.52;;
48703;SDS011;34502;51.296;16.918;2024-03-22T01:24:52;10.35;;;8.20;;
48703;SDS011;34502;51.296;16.918;2024-03-22T01:27:18;9.77;;;7.85;;
48703;SDS011;34502;51.296;16.918;2024-03-22T01:29:46;9.20;;;7.43;;
48703;SDS011;34502;51.296;16.918;2024-03-22T01:32:12;9.02;;;6.90;;
48703;SDS011;34502;51.296;16.918;2024-03-22T01:34:38;8.48;;;6.43;;
48703;SDS011;34502;51.296;16.918;2024-03-22T01:37:04;13.85;;;7.18;;
48703;SDS011;34502;51.296;16.918;2024-03-22T01:39:31;7.88;;;6.38;;
48703;SDS011;34502;51.296;16.918;2024-03-22T01:41:57;8.10;;;6.22;;
48703;SDS011;34502;51.296;16.918;2024-03-22T01:44:29;7.65;;;6.43;;
48703;SDS011;34502;51.296;16.918;2024-03-22T01:46:57;8.52;;;6.82;;
48703;SDS011;34502;51.296;16.918;2024-03-22T01:49:24;9.75;;;6.80;;
48703;SDS011;34502;51.296;16.918;2024-03-22T01:51:52;8.52;;;6.93;;
48703;SDS011;34502;51.296;16.918;2024-03-22T01:54:19;9.38;;;6.65;;
48703;SDS011;34502;51.296;16.918;2024-03-22T01:56:45;9.45;;;7.30;;
48703;SDS011;34502;51.296;16.918;2024-03-22T01:59:12;9.25;;;7.22;;
48703;SDS011;34502;51.296;16.918;2024-03-22T02:01:38;9.68;;;6.70;;
48703;SDS011;34502;51.296;16.918;2024-03-22T02:04:05;9.23;;;6.65;;
48703;SDS011;34502;51.296;16.918;2024-03-22T02:06:32;10.43;;;7.63;;
48703;SDS011;34502;51.296;16.918;2024-03-22T02:08:58;9.30;;;7.72;;
48703;SDS011;34502;51.296;16.918;2024-03-22T02:11:25;9.63;;;8.32;;
48703;SDS011;34502;51.296;16.918;2024-03-22T02:13:51;8.75;;;7.63;;
48703;SDS011;34502;51.296;16.918;2024-03-22T02:16:17;10.98;;;8.38;;
48703;SDS011;34502;51.296;16.918;2024-03-22T02:18:43;12.20;;;8.98;;
48703;SDS011;34502;51.296;16.918;2024-03-22T02:21:10;10.80;;;8.98;;
48703;SDS011;34502;51.296;16.918;2024-03-22T02:23:36;10.07;;;8.65;;
48703;SDS011;34502;51.296;16.918;2024-03-22T02:26:04;12.68;;;9.88;;
48703;SDS011;34502;51.296;16.918;2024-03-22T02:28:30;12.90;;;9.90;;
48703;SDS011;34502;51.296;16.918;2024-03-22T02:31:00;11.80;;;9.90;;
48703;SDS011;34502;51.296;16.918;2024-03-22T02:33:27;11.82;;;10.23;;
48703;SDS011;34502;51.296;16.918;2024-03-22T02:35:53;14.00;;;10.07;;
48703;SDS011;34502;51.296;16.918;2024-03-22T02:38:19;14.27;;;11.07;;
48703;SDS011;34502;51.296;16.918;2024-03-22T02:40:46;14.35;;;10.25;;
48703;SDS011;34502;51.296;16.918;2024-03-22T02:43:12;12.80;;;9.77;;
48703;SDS011;34502;51.296;16.918;2024-03-22T02:45:38;11.80;;;9.50;;
48703;SDS011;34502;51.296;16.918;2024-03-22T02:48:05;14.38;;;10.00;;
48703;SDS011;34502;51.296;16.918;2024-03-22T02:50:35;13.07;;;10.82;;
48703;SDS011;34502;51.296;16.918;2024-03-22T02:53:02;12.18;;;10.73;;
48703;SDS011;34502;51.296;16.918;2024-03-22T02:55:28;13.45;;;10.68;;
48703;SDS011;34502;51.296;16.918;2024-03-22T02:57:55;14.02;;;10.20;;
48703;SDS011;34502;51.296;16.918;2024-03-22T03:00:22;13.38;;;10.27;;
48703;SDS011;34502;51.296;16.918;2024-03-22T03:02:48;15.15;;;11.10;;
48703;SDS011;34502;51.296;16.918;2024-03-22T03:05:15;14.68;;;11.38;;
48703;SDS011;34502;51.296;16.918;2024-03-22T03:07:41;13.13;;;11.45;;
48703;SDS011;34502;51.296;16.918;2024-03-22T03:10:07;15.10;;;11.98;;
48703;SDS011;34502;51.296;16.918;2024-03-22T03:12:33;14.38;;;11.95;;
48703;SDS011;34502;51.296;16.918;2024-03-22T03:14:59;16.77;;;12.45;;
48703;SDS011;34502;51.296;16.918;2024-03-22T03:17:25;15.80;;;12.10;;
48703;SDS011;34502;51.296;16.918;2024-03-22T03:19:51;15.32;;;12.65;;
48703;SDS011;34502;51.296;16.918;2024-03-22T03:22:17;17.15;;;12.98;;
48703;SDS011;34502;51.296;16.918;2024-03-22T03:24:44;17.25;;;13.15;;
48703;SDS011;34502;51.296;16.918;2024-03-22T03:27:10;20.45;;;14.50;;
48703;SDS011;34502;51.296;16.918;2024-03-22T03:29:36;13.80;;;12.10;;
48703;SDS011;34502;51.296;16.918;2024-03-22T03:32:02;16.45;;;13.57;;
48703;SDS011;34502;51.296;16.918;2024-03-22T03:34:28;15.82;;;13.85;;
48703;SDS011;34502;51.296;16.918;2024-03-22T03:36:54;16.23;;;13.93;;
48703;SDS011;34502;51.296;16.918;2024-03-22T03:39:21;17.02;;;13.95;;
48703;SDS011;34502;51.296;16.918;2024-03-22T03:41:47;16.65;;;13.38;;
48703;SDS011;34502;51.296;16.918;2024-03-22T03:44:13;16.70;;;13.85;;
48703;SDS011;34502;51.296;16.918;2024-03-22T03:46:39;16.27;;;13.77;;
48703;SDS011;34502;51.296;16.918;2024-03-22T03:49:05;16.80;;;13.77;;
48703;SDS011;34502;51.296;16.918;2024-03-22T03:51:31;18.15;;;14.75;;
48703;SDS011;34502;51.296;16.918;2024-03-22T03:53:57;17.95;;;14.65;;
48703;SDS011;34502;51.296;16.918;2024-03-22T03:56:23;18.17;;;14.25;;
48703;SDS011;34502;51.296;16.918;2024-03-22T03:58:49;18.70;;;15.48;;
48703;SDS011;34502;51.296;16.918;2024-03-22T04:01:15;15.43;;;13.25;;
48703;SDS011;34502;51.296;16.918;2024-03-22T04:03:43;16.83;;;14.18;;
48703;SDS011;34502;51.296;16.918;2024-03-22T04:06:09;16.65;;;13.60;;
48703;SDS011;34502;51.296;16.918;2024-03-22T04:08:35;14.95;;;12.80;;
48703;SDS011;34502;51.296;16.918;2024-03-22T04:11:01;17.42;;;13.77;;
48703;SDS011;34502;51.296;16.918;2024-03-22T04:13:28;15.95;;;13.77;;
48703;SDS011;34502;51.296;16.918;2024-03-22T04:15:54;17.10;;;13.98;;
48703;SDS011;34502;51.296;16.918;2024-03-22T04:18:23;17.27;;;14.02;;
48703;SDS011;34502;51.296;16.918;2024-03-22T04:20:58;15.35;;;12.60;;
48703;SDS011;34502;51.296;16.918;2024-03-22T04:23:25;17.17;;;13.38;;
48703;SDS011;34502;51.296;16.918;2024-03-22T04:25:55;15.98;;;14.10;;
48703;SDS011;34502;51.296;16.918;2024-03-22T04:28:24;16.67;;;13.45;;
48703;SDS011;34502;51.296;16.918;2024-03-22T04:31:01;16.23;;;13.68;;
48703;SDS011;34502;51.296;16.918;2024-03-22T04:33:28;19.20;;;14.77;;
48703;SDS011;34502;51.296;16.918;2024-03-22T04:35:55;18.13;;;13.57;;
48703;SDS011;34502;51.296;16.918;2024-03-22T04:38:21;19.25;;;13.95;;
48703;SDS011;34502;51.296;16.918;2024-03-22T04:40:47;19.10;;;15.25;;
48703;SDS011;34502;51.296;16.918;2024-03-22T04:43:14;17.98;;;13.63;;
48703;SDS011;34502;51.296;16.918;2024-03-22T04:45:44;18.52;;;14.55;;
48703;SDS011;34502;51.296;16.918;2024-03-22T04:48:12;17.63;;;13.27;;
48703;SDS011;34502;51.296;16.918;2024-03-22T04:50:39;20.40;;;15.45;;
48703;SDS011;34502;51.296;16.918;2024-03-22T04:53:05;21.23;;;15.18;;
48703;SDS011;34502;51.296;16.918;2024-03-22T04:55:31;15.82;;;13.75;;
48703;SDS011;34502;51.296;16.918;2024-03-22T04:57:58;17.17;;;13.55;;
48703;SDS011;34502;51.296;16.918;2024-03-22T05:00:24;17.58;;;14.32;;
48703;SDS011;34502;51.296;16.918;2024-03-22T05:02:50;17.92;;;13.80;;
48703;SDS011;34502;51.296;16.918;2024-03-22T05:05:17;16.98;;;14.15;;
48703;SDS011;34502;51.296;16.918;2024-03-22T05:07:43;17.42;;;14.57;;
48703;SDS011;34502;51.296;16.918;2024-03-22T05:10:09;17.25;;;13.60;;
48703;SDS011;34502;51.296;16.918;2024-03-22T05:12:36;17.80;;;13.77;;
48703;SDS011;34502;51.296;16.918;2024-03-22T05:15:03;17.40;;;13.82;;
48703;SDS011;34502;51.296;16.918;2024-03-22T05:17:29;19.00;;;14.23;;
48703;SDS011;34502;51.296;16.918;2024-03-22T05:19:57;15.25;;;12.65;;
48703;SDS011;34502;51.296;16.918;2024-03-22T05:22:23;18.17;;;12.55;;
48703;SDS011;34502;51.296;16.918;2024-03-22T05:24:49;17.83;;;13.35;;
48703;SDS011;34502;51.296;16.918;2024-03-22T05:27:16;16.92;;;13.45;;
48703;SDS011;34502;51.296;16.918;2024-03-22T05:29:43;16.10;;;12.98;;
48703;SDS011;34502;51.296;16.918;2024-03-22T05:32:09;15.07;;;12.27;;
48703;SDS011;34502;51.296;16.918;2024-03-22T05:34:35;17.83;;;12.93;;
48703;SDS011;34502;51.296;16.918;2024-03-22T05:37:01;19.73;;;13.85;;
48703;SDS011;34502;51.296;16.918;2024-03-22T05:39:28;18.70;;;14.85;;
48703;SDS011;34502;51.296;16.918;2024-03-22T05:41:54;17.50;;;13.68;;
48703;SDS011;34502;51.296;16.918;2024-03-22T05:44:21;19.67;;;15.68;;
48703;SDS011;34502;51.296;16.918;2024-03-22T05:46:47;20.60;;;15.48;;
48703;SDS011;34502;51.296;16.918;2024-03-22T05:49:13;22.38;;;16.73;;
48703;SDS011;34502;51.296;16.918;2024-03-22T05:51:40;22.83;;;17.25;;
48703;SDS011;34502;51.296;16.918;2024-03-22T05:54:06;21.20;;;16.38;;
48703;SDS011;34502;51.296;16.918;2024-03-22T05:56:32;21.60;;;17.17;;
48703;SDS011;34502;51.296;16.918;2024-03-22T05:58:59;23.45;;;17.55;;
48703;SDS011;34502;51.296;16.918;2024-03-22T06:01:25;23.15;;;17.23;;
48703;SDS011;34502;51.296;16.918;2024-03-22T06:03:51;23.08;;;17.02;;
48703;SDS011;34502;51.296;16.918;2024-03-22T06:06:17;17.88;;;14.65;;
48703;SDS011;34502;51.296;16.918;2024-03-22T06:08:43;18.48;;;14.77;;
48703;SDS011;34502;51.296;16.918;2024-03-22T06:11:10;18.70;;;14.02;;
48703;SDS011;34502;51.296;16.918;2024-03-22T06:13:36;20.67;;;15.35;;
48703;SDS011;34502;51.296;16.918;2024-03-22T06:16:03;18.58;;;14.65;;
48703;SDS011;34502;51.296;16.918;2024-03-22T06:18:30;19.30;;;14.55;;
48703;SDS011;34502;51.296;16.918;2024-03-22T06:20:56;19.10;;;14.85;;
48703;SDS011;34502;51.296;16.918;2024-03-22T06:23:22;19.60;;;15.20;;
48703;SDS011;34502;51.296;16.918;2024-03-22T06:25:52;24.02;;;16.80;;
48703;SDS011;34502;51.296;16.918;2024-03-22T06:28:19;17.95;;;14.82;;
48703;SDS011;34502;51.296;16.918;2024-03-22T06:30:45;19.60;;;15.13;;
48703;SDS011;34502;51.296;16.918;2024-03-22T06:33:11;17.85;;;14.57;;
48703;SDS011;34502;51.296;16.918;2024-03-22T06:35:37;20.85;;;14.93;;
48703;SDS011;34502;51.296;16.918;2024-03-22T06:38:03;20.33;;;14.95;;
48703;SDS011;34502;51.296;16.918;2024-03-22T06:40:29;23.58;;;16.55;;
48703;SDS011;34502;51.296;16.918;2024-03-22T06:42:56;22.50;;;16.17;;
48703;SDS011;34502;51.296;16.918;2024-03-22T06:45:22;19.27;;;14.80;;
48703;SDS011;34502;51.296;16.918;2024-03-22T06:47:48;19.17;;;15.63;;
48703;SDS011;34502;51.296;16.918;2024-03-22T06:50:14;20.67;;;15.45;;
48703;SDS011;34502;51.296;16.918;2024-03-22T06:52:42;20.27;;;15.50;;
48703;SDS011;34502;51.296;16.918;2024-03-22T06:55:09;21.50;;;16.42;;
48703;SDS011;34502;51.296;16.918;2024-03-22T06:57:35;20.05;;;15.95;;
48703;SDS011;34502;51.296;16.918;2024-03-22T07:00:04;19.35;;;16.25;;
48703;SDS011;34502;51.296;16.918;2024-03-22T07:02:31;19.88;;;15.98;;
48703;SDS011;34502;51.296;16.918;2024-03-22T07:04:57;20.45;;;15.90;;
48703;SDS011;34502;51.296;16.918;2024-03-22T07:07:23;21.80;;;16.17;;
48703;SDS011;34502;51.296;16.918;2024-03-22T07:09:49;21.30;;;15.27;;
48703;SDS011;34502;51.296;16.918;2024-03-22T07:12:15;22.00;;;15.88;;
48703;SDS011;34502;51.296;16.918;2024-03-22T07:14:41;24.80;;;16.70;;
48703;SDS011;34502;51.296;16.918;2024-03-22T07:17:07;19.85;;;15.30;;
48703;SDS011;34502;51.296;16.918;2024-03-22T07:19:33;20.35;;;15.90;;
48703;SDS011;34502;51.296;16.918;2024-03-22T07:22:00;22.63;;;16.30;;
48703;SDS011;34502;51.296;16.918;2024-03-22T07:24:26;24.63;;;16.25;;
48703;SDS011;34502;51.296;16.918;2024-03-22T07:26:52;20.05;;;16.25;;
48703;SDS011;34502;51.296;16.918;2024-03-22T07:29:18;22.00;;;17.88;;
48703;SDS011;34502;51.296;16.918;2024-03-22T07:31:44;19.60;;;15.52;;
48703;SDS011;34502;51.296;16.918;2024-03-22T07:34:10;21.08;;;16.27;;
48703;SDS011;34502;51.296;16.918;2024-03-22T07:36:37;20.05;;;16.20;;
48703;SDS011;34502;51.296;16.918;2024-03-22T07:39:03;22.40;;;16.90;;
48703;SDS011;34502;51.296;16.918;2024-03-22T07:41:33;23.20;;;18.17;;
48703;SDS011;34502;51.296;16.918;2024-03-22T07:43:59;21.75;;;16.42;;
48703;SDS011;34502;51.296;16.918;2024-03-22T07:46:26;20.77;;;15.05;;
48703;SDS011;34502;51.296;16.918;2024-03-22T07:48:52;22.02;;;17.02;;
48703;SDS011;34502;51.296;16.918;2024-03-22T07:51:19;23.75;;;17.23;;
48703;SDS011;34502;51.296;16.918;2024-03-22T07:53:45;24.45;;;16.92;;
48703;SDS011;34502;51.296;16.918;2024-03-22T07:56:11;23.83;;;16.98;;
48703;SDS011;34502;51.296;16.918;2024-03-22T07:58:38;26.58;;;19.23;;
48703;SDS011;34502;51.296;16.918;2024-03-22T08:01:04;21.98;;;17.20;;
48703;SDS011;34502;51.296;16.918;2024-03-22T08:03:30;23.08;;;17.35;;
48703;SDS011;34502;51.296;16.918;2024-03-22T08:05:56;24.60;;;17.05;;
48703;SDS011;34502;51.296;16.918;2024-03-22T08:08:22;23.33;;;16.83;;
48703;SDS011;34502;51.296;16.918;2024-03-22T08:10:48;23.23;;;17.30;;
48703;SDS011;34502;51.296;16.918;2024-03-22T08:13:14;22.05;;;16.17;;
48703;SDS011;34502;51.296;16.918;2024-03-22T08:15:40;19.35;;;14.45;;
48703;SDS011;34502;51.296;16.918;2024-03-22T08:18:10;16.88;;;13.57;;
48703;SDS011;34502;51.296;16.918;2024-03-22T08:20:36;16.77;;;14.10;;
48703;SDS011;34502;51.296;16.918;2024-03-22T08:23:04;19.23;;;13.80;;
48703;SDS011;34502;51.296;16.918;2024-03-22T08:25:30;17.40;;;14.32;;
48703;SDS011;34502;51.296;16.918;2024-03-22T08:27:56;16.90;;;13.68;;
48703;SDS011;34502;51.296;16.918;2024-03-22T08:30:23;18.60;;;14.40;;
48703;SDS011;34502;51.296;16.918;2024-03-22T08:32:52;17.38;;;14.18;;
48703;SDS011;34502;51.296;16.918;2024-03-22T08:35:18;18.88;;;14.27;;
48703;SDS011;34502;51.296;16.918;2024-03-22T08:37:45;17.30;;;13.50;;
48703;SDS011;34502;51.296;16.918;2024-03-22T08:40:11;19.85;;;15.13;;
48703;SDS011;34502;51.296;16.918;2024-03-22T08:42:38;18.80;;;13.75;;
48703;SDS011;34502;51.296;16.918;2024-03-22T08:45:05;16.10;;;13.02;;
48703;SDS011;34502;51.296;16.918;2024-03-22T08:47:32;17.83;;;14.68;;
48703;SDS011;34502;51.296;16.918;2024-03-22T08:49:58;18.38;;;14.80;;
48703;SDS011;34502;51.296;16.918;2024-03-22T08:52:25;16.60;;;13.25;;
48703;SDS011;34502;51.296;16.918;2024-03-22T08:54:52;21.30;;;14.85;;
48703;SDS011;34502;51.296;16.918;2024-03-22T08:57:18;19.00;;;14.35;;
48703;SDS011;34502;51.296;16.918;2024-03-22T08:59:44;18.27;;;13.73;;
48703;SDS011;34502;51.296;16.918;2024-03-22T09:02:10;16.92;;;13.85;;
48703;SDS011;34502;51.296;16.918;2024-03-22T09:04:37;17.27;;;13.65;;
48703;SDS011;34502;51.296;16.918;2024-03-22T09:07:03;16.48;;;13.15;;
48703;SDS011;34502;51.296;16.918;2024-03-22T09:09:29;15.95;;;13.18;;
48703;SDS011;34502;51.296;16.918;2024-03-22T09:11:55;19.58;;;13.30;;
48703;SDS011;34502;51.296;16.918;2024-03-22T09:14:22;21.08;;;14.80;;
48703;SDS011;34502;51.296;16.918;2024-03-22T09:16:48;19.20;;;14.75;;
48703;SDS011;34502;51.296;16.918;2024-03-22T09:19:14;19.15;;;14.32;;
48703;SDS011;34502;51.296;16.918;2024-03-22T09:21:40;17.73;;;14.40;;
48703;SDS011;34502;51.296;16.918;2024-03-22T09:24:07;21.52;;;16.02;;
48703;SDS011;34502;51.296;16.918;2024-03-22T09:26:33;20.23;;;15.40;;
48703;SDS011;34502;51.296;16.918;2024-03-22T09:29:00;18.38;;;13.50;;
48703;SDS011;34502;51.296;16.918;2024-03-22T09:31:26;21.45;;;15.95;;
48703;SDS011;34502;51.296;16.918;2024-03-22T09:33:52;20.50;;;15.25;;
48703;SDS011;34502;51.296;16.918;2024-03-22T09:36:18;20.15;;;15.48;;
48703;SDS011;34502;51.296;16.918;2024-03-22T09:38:44;25.33;;;16.15;;
48703;SDS011;34502;51.296;16.918;2024-03-22T09:41:10;20.95;;;15.32;;
48703;SDS011;34502;51.296;16.918;2024-03-22T09:43:38;18.67;;;15.48;;
48703;SDS011;34502;51.296;16.918;2024-03-22T09:46:04;22.63;;;17.08;;
48703;SDS011;34502;51.296;16.918;2024-03-22T09:48:31;21.77;;;17.48;;
48703;SDS011;34502;51.296;16.918;2024-03-22T09:50:57;23.60;;;17.00;;
48703;SDS011;34502;51.296;16.918;2024-03-22T09:53:23;20.70;;;15.90;;
48703;SDS011;34502;51.296;16.918;2024-03-22T09:55:51;19.33;;;15.80;;
48703;SDS011;34502;51.296;16.918;2024-03-22T09:58:22;17.87;;;14.67;;
48703;SDS011;34502;51.296;16.918;2024-03-22T10:00:49;19.38;;;15.77;;
48703;SDS011;34502;51.296;16.918;2024-03-22T10:03:15;17.67;;;15.25;;
48703;SDS011;34502;51.296;16.918;2024-03-22T10:05:41;21.38;;;16.15;;
48703;SDS011;34502;51.296;16.918;2024-03-22T10:08:07;20.67;;;15.85;;
48703;SDS011;34502;51.296;16.918;2024-03-22T10:10:34;19.88;;;15.20;;
48703;SDS011;34502;51.296;16.918;2024-03-22T10:13:00;19.00;;;15.38;;
48703;SDS011;34502;51.296;16.918;2024-03-22T10:15:28;19.50;;;15.98;;
48703;SDS011;34502;51.296;16.918;2024-03-22T10:17:56;20.25;;;15.40;;
48703;SDS011;34502;51.296;16.918;2024-03-22T10:20:22;20.83;;;14.93;;
48703;SDS011;34502;51.296;16.918;2024-03-22T10:22:50;23.35;;;16.48;;
48703;SDS011;34502;51.296;16.918;2024-03-22T10:25:21;16.75;;;14.13;;
48703;SDS011;34502;51.296;16.918;2024-03-22T10:27:48;18.73;;;15.07;;
48703;SDS011;34502;51.296;16.918;2024-03-22T10:30:15;19.23;;;14.45;;
48703;SDS011;34502;51.296;16.918;2024-03-22T10:32:41;21.83;;;14.93;;
48703;SDS011;34502;51.296;16.918;2024-03-22T10:35:08;17.48;;;14.50;;
48703;SDS011;34502;51.296;16.918;2024-03-22T10:37:38;23.42;;;14.02;;
48703;SDS011;34502;51.296;16.918;2024-03-22T10:40:04;17.30;;;13.40;;
48703;SDS011;34502;51.296;16.918;2024-03-22T10:42:38;17.70;;;13.05;;
48703;SDS011;34502;51.296;16.918;2024-03-22T10:45:05;16.85;;;13.18;;
48703;SDS011;34502;51.296;16.918;2024-03-22T10:47:36;17.15;;;12.80;;
48703;SDS011;34502;51.296;16.918;2024-03-22T10:52:54;16.08;;;11.70;;
48703;SDS011;34502;51.296;16.918;2024-03-22T10:55:30;14.73;;;11.73;;
48703;SDS011;34502;51.296;16.918;2024-03-22T10:58:00;13.98;;;11.48;;
48703;SDS011;34502;51.296;16.918;2024-03-22T11:00:27;17.73;;;13.30;;
48703;SDS011;34502;51.296;16.918;2024-03-22T11:02:54;15.50;;;11.77;;
48703;SDS011;34502;51.296;16.918;2024-03-22T11:05:21;21.80;;;13.32;;
48703;SDS011;34502;51.296;16.918;2024-03-22T11:07:47;15.70;;;12.02;;
48703;SDS011;34502;51.296;16.918;2024-03-22T11:10:29;14.20;;;10.38;;
48703;SDS011;34502;51.296;16.918;2024-03-22T11:13:02;14.45;;;11.40;;
48703;SDS011;34502;51.296;16.918;2024-03-22T11:15:29;14.70;;;11.07;;
48703;SDS011;34502;51.296;16.918;2024-03-22T11:17:56;14.77;;;11.43;;
48703;SDS011;34502;51.296;16.918;2024-03-22T11:20:22;16.90;;;11.50;;
48703;SDS011;34502;51.296;16.918;2024-03-22T11:22:49;13.30;;;11.07;;
48703;SDS011;34502;51.296;16.918;2024-03-22T11:25:17;12.55;;;10.13;;
48703;SDS011;34502;51.296;16.918;2024-03-22T11:27:44;13.15;;;10.23;;
48703;SDS011;34502;51.296;16.918;2024-03-22T11:30:11;14.27;;;10.40;;
48703;SDS011;34502;51.296;16.918;2024-03-22T11:32:37;13.23;;;10.32;;
48703;SDS011;34502;51.296;16.918;2024-03-22T11:35:09;13.05;;;10.52;;
48703;SDS011;34502;51.296;16.918;2024-03-22T11:37:41;12.23;;;9.52;;
48703;SDS011;34502;51.296;16.918;2024-03-22T11:40:11;15.52;;;9.65;;
48703;SDS011;34502;51.296;16.918;2024-03-22T11:42:38;11.95;;;9.00;;
48703;SDS011;34502;51.296;16.918;2024-03-22T11:45:05;12.18;;;8.98;;
48703;SDS011;34502;51.296;16.918;2024-03-22T11:47:34;15.38;;;10.30;;
48703;SDS011;34502;51.296;16.918;2024-03-22T11:50:01;12.23;;;9.55;;
48703;SDS011;34502;51.296;16.918;2024-03-22T11:52:27;13.90;;;9.73;;
48703;SDS011;34502;51.296;16.918;2024-03-22T11:54:54;13.45;;;9.00;;
48703;SDS011;34502;51.296;16.918;2024-03-22T11:57:20;12.75;;;9.00;;
48703;SDS011;34502;51.296;16.918;2024-03-22T11:59:47;11.70;;;8.45;;
48703;SDS011;34502;51.296;16.918;2024-03-22T12:02:13;11.52;;;9.18;;
48703;SDS011;34502;51.296;16.918;2024-03-22T12:04:42;13.27;;;8.32;;
48703;SDS011;34502;51.296;16.918;2024-03-22T12:07:16;14.55;;;9.60;;
48703;SDS011;34502;51.296;16.918;2024-03-22T12:09:42;12.63;;;8.82;;
48703;SDS011;34502;51.296;16.918;2024-03-22T12:12:10;13.85;;;8.70;;
48703;SDS011;34502;51.296;16.918;2024-03-22T12:14:37;12.95;;;9.27;;
48703;SDS011;34502;51.296;16.918;2024-03-22T12:17:04;11.82;;;8.23;;
48703;SDS011;34502;51.296;16.918;2024-03-22T12:19:31;10.85;;;7.95;;
48703;SDS011;34502;51.296;16.918;2024-03-22T12:21:57;14.25;;;9.27;;
48703;SDS011;34502;51.296;16.918;2024-03-22T12:24:24;12.68;;;9.13;;
48703;SDS011;34502;51.296;16.918;2024-03-22T12:26:50;11.60;;;8.18;;
48703;SDS011;34502;51.296;16.918;2024-03-22T12:29:16;9.80;;;7.57;;
48703;SDS011;34502;51.296;16.918;2024-03-22T12:31:43;14.35;;;7.55;;
48703;SDS011;34502;51.296;16.918;2024-03-22T12:34:09;11.57;;;8.10;;
48703;SDS011;34502;51.296;16.918;2024-03-22T12:36:35;11.43;;;7.72;;
48703;SDS011;34502;51.296;16.918;2024-03-22T12:39:01;11.20;;;8.88;;
48703;SDS011;34502;51.296;16.918;2024-03-22T12:41:28;15.50;;;10.90;;
48703;SDS011;34502;51.296;16.918;2024-03-22T12:43:55;13.75;;;10.32;;
48703;SDS011;34502;51.296;16.918;2024-03-22T12:46:21;14.15;;;10.60;;
48703;SDS011;34502;51.296;16.918;2024-03-22T12:48:47;13.73;;;10.15;;
48703;SDS011;34502;51.296;16.918;2024-03-22T12:51:14;13.98;;;10.25;;
48703;SDS011;34502;51.296;16.918;2024-03-22T12:53:40;15.63;;;11.00;;
48703;SDS011;34502;51.296;16.918;2024-03-22T12:56:06;14.55;;;9.57;;
48703;SDS011;34502;51.296;16.918;2024-03-22T12:58:33;16.75;;;11.05;;
48703;SDS011;34502;51.296;16.918;2024-03-22T13:00:59;15.13;;;9.98;;
48703;SDS011;34502;51.296;16.918;2024-03-22T13:03:27;12.55;;;9.93;;
48703;SDS011;34502;51.296;16.918;2024-03-22T13:05:53;14.68;;;9.48;;
48703;SDS011;34502;51.296;16.918;2024-03-22T13:08:19;15.75;;;10.15;;
48703;SDS011;34502;51.296;16.918;2024-03-22T13:10:46;15.15;;;9.80;;
48703;SDS011;34502;51.296;16.918;2024-03-22T13:13:13;14.40;;;9.27;;
48703;SDS011;34502;51.296;16.918;2024-03-22T13:15:41;14.02;;;9.65;;
48703;SDS011;34502;51.296;16.918;2024-03-22T13:18:07;15.68;;;9.32;;
48703;SDS011;34502;51.296;16.918;2024-03-22T13:20:36;11.02;;;8.40;;
48703;SDS011;34502;51.296;16.918;2024-03-22T13:23:03;11.48;;;8.55;;
48703;SDS011;34502;51.296;16.918;2024-03-22T13:25:29;12.43;;;8.45;;
48703;SDS011;34502;51.296;16.918;2024-03-22T13:27:55;10.32;;;7.68;;
48703;SDS011;34502;51.296;16.918;2024-03-22T13:30:21;9.38;;;6.93;;
48703;SDS011;34502;51.296;16.918;2024-03-22T13:32:48;9.68;;;7.10;;
48703;SDS011;34502;51.296;16.918;2024-03-22T13:35:14;9.15;;;6.30;;
48703;SDS011;34502;51.296;16.918;2024-03-22T13:37:40;6.20;;;4.53;;
48703;SDS011;34502;51.296;16.918;2024-03-22T13:40:07;7.03;;;4.63;;
48703;SDS011;34502;51.296;16.918;2024-03-22T13:42:33;5.75;;;4.10;;
48703;SDS011;34502;51.296;16.918;2024-03-22T13:44:59;6.03;;;4.45;;
48703;SDS011;34502;51.296;16.918;2024-03-22T13:47:26;5.60;;;4.35;;
48703;SDS011;34502;51.296;16.918;2024-03-22T13:49:55;5.40;;;3.90;;
48703;SDS011;34502;51.296;16.918;2024-03-22T13:52:21;6.53;;;4.18;;
48703;SDS011;34502;51.296;16.918;2024-03-22T13:54:47;5.72;;;4.15;;
48703;SDS011;34502;51.296;16.918;2024-03-22T13:57:15;10.15;;;3.97;;
48703;SDS011;34502;51.296;16.918;2024-03-22T13:59:41;8.63;;;4.75;;
48703;SDS011;34502;51.296;16.918;2024-03-22T14:02:07;4.90;;;4.05;;
48703;SDS011;34502;51.296;16.918;2024-03-22T14:04:33;7.53;;;4.43;;
48703;SDS011;34502;51.296;16.918;2024-03-22T14:07:00;6.85;;;3.97;;
48703;SDS011;34502;51.296;16.918;2024-03-22T14:09:30;5.68;;;4.28;;
48703;SDS011;34502;51.296;16.918;2024-03-22T14:11:57;6.57;;;4.18;;
48703;SDS011;34502;51.296;16.918;2024-03-22T14:14:24;7.45;;;4.13;;